PWSweather.com
Personal Weather Stations
Station Observations
J24K28P63
Vysocina, PocatkyCZ 39464

VysocinaPocatkyCZ 39464

Lat: 49.2594238, Lon: 15.2331769

Elevation: 2011

Station Type: Vantage Pro2+

http://meteo-jirkalina.com

Latest ConditionsUpdated 5:50:09 AM GMT+01:01 Thursday, Apr 25, 2019
Currently Today's Max Today's Min Today's Average
Temperature 50.5°F10.3°C 57.1°F13.9°C 44.9°F7.2°C 51.6°F10.9°C
Dew Point 49.1°F9.5°C 51.7°F10.9°C 41.9°F5.5°C 47.8°F8.8°C
Winds 1.0 mph W1.6 kmh W 6.0 mph -9.7 kmh - - 1.2 mph 1.9 kmh
Wind Gusts 2.0 mph3.2 kmh 10.0 mph16.1 kmh - -
Humidity 95% 95% 61% 88%
Pressure 29.88 in1011.9 mb 29.88 in1011.9 mb 29.75 in1007.5 mb -
Hour Temp Dew Point Humidity Winds Wind Gusts Pressure Precip Precip Rate Daily Precip Total
05:50 AM 50.5°F10.3°C 49.1°F9.5°C 95% 1.0 mph W1.6 kmh W 2.0 mph3.2 kmh 29.88 in1011.9 mb - 0.00 in0.0 mm 0.00 in0.0 mm
05:40 AM 49.6°F9.8°C 48.2°F9.0°C 95% 1.0 mph W1.6 kmh W 2.0 mph3.2 kmh 29.87 in1011.5 mb - 0.00 in0.0 mm 0.00 in0.0 mm
05:30 AM 44.9°F7.2°C 42.1°F5.6°C 90% Calm Calm -- 29.82 in1009.8 mb - 0.00 in0.0 mm 0.00 in0.0 mm
05:20 AM 48.4°F9.1°C 47.0°F8.3°C 95% Calm Calm 1.0 mph1.6 kmh 29.86 in1011.2 mb - 0.00 in0.0 mm 0.00 in0.0 mm
05:10 AM 48.5°F9.2°C 47.1°F8.4°C 95% 1.0 mph W1.6 kmh W 2.0 mph3.2 kmh 29.86 in1011.2 mb - 0.00 in0.0 mm 0.00 in0.0 mm
05:00 AM 48.8°F9.3°C 47.4°F8.6°C 95% 2.0 mph W3.2 kmh W 3.0 mph4.8 kmh 29.86 in1011.2 mb - 0.00 in0.0 mm 0.00 in0.0 mm
04:50 AM 49.4°F9.7°C 48.0°F8.9°C 95% 2.0 mph W3.2 kmh W 3.0 mph4.8 kmh 29.85 in1010.8 mb - 0.00 in0.0 mm 0.00 in0.0 mm
04:40 AM 49.3°F9.6°C 47.9°F8.8°C 95% 1.0 mph W1.6 kmh W 2.0 mph3.2 kmh 29.84 in1010.5 mb - 0.00 in0.0 mm 0.00 in0.0 mm
04:30 AM 48.0°F8.9°C 44.0°F6.7°C 86% Calm Calm -- 29.80 in1009.1 mb - 0.00 in0.0 mm 0.00 in0.0 mm
04:20 AM 48.7°F9.3°C 47.1°F8.4°C 94% 3.0 mph W4.8 kmh W 7.0 mph11.3 kmh 29.84 in1010.5 mb - 0.00 in0.0 mm 0.00 in0.0 mm
04:10 AM 48.7°F9.3°C 46.7°F8.2°C 93% Calm Calm 2.0 mph3.2 kmh 29.83 in1010.2 mb - 0.00 in0.0 mm 0.00 in0.0 mm
04:00 AM 49.2°F9.6°C 47.2°F8.4°C 93% Calm Calm -- 29.83 in1010.2 mb - 0.00 in0.0 mm 0.00 in0.0 mm
03:50 AM 49.7°F9.8°C 47.5°F8.6°C 92% 1.0 mph W1.6 kmh W 2.0 mph3.2 kmh 29.83 in1010.2 mb - 0.00 in0.0 mm 0.00 in0.0 mm
03:40 AM 50.5°F10.3°C 48.3°F9.1°C 92% 1.0 mph W1.6 kmh W 3.0 mph4.8 kmh 29.83 in1010.2 mb - 0.00 in0.0 mm 0.00 in0.0 mm
03:30 AM 51.7°F10.9°C 43.7°F6.5°C 74% 0.2 mph SE0.3 kmh SE 2.0 mph3.2 kmh 29.78 in1008.5 mb - 0.00 in0.0 mm 0.00 in0.0 mm
03:20 AM 51.8°F11.0°C 49.2°F9.6°C 91% 3.0 mph WSW4.8 kmh WSW 5.0 mph8.0 kmh 29.82 in1009.8 mb - 0.00 in0.0 mm 0.00 in0.0 mm
03:10 AM 51.9°F11.1°C 49.4°F9.7°C 91% 6.0 mph WSW9.7 kmh WSW 10.0 mph16.1 kmh 29.82 in1009.8 mb - 0.00 in0.0 mm 0.00 in0.0 mm
03:00 AM 51.4°F10.8°C 49.2°F9.6°C 92% 3.0 mph SSW4.8 kmh SSW 5.0 mph8.0 kmh 29.81 in1009.5 mb - 0.00 in0.0 mm 0.00 in0.0 mm
02:50 AM 51.3°F10.7°C 48.8°F9.3°C 91% Calm Calm -- 29.80 in1009.1 mb - 0.00 in0.0 mm 0.00 in0.0 mm
02:40 AM 51.9°F11.1°C 49.1°F9.5°C 90% 1.0 mph SE1.6 kmh SE 1.0 mph1.6 kmh 29.80 in1009.1 mb - 0.00 in0.0 mm 0.00 in0.0 mm
02:30 AM 53.3°F11.8°C 43.0°F6.1°C 68% 2.2 mph SE3.5 kmh SE 3.0 mph4.8 kmh 29.77 in1008.1 mb - 0.00 in0.0 mm 0.00 in0.0 mm
02:20 AM 53.3°F11.8°C 49.8°F9.9°C 88% 1.0 mph SE1.6 kmh SE 1.0 mph1.6 kmh 29.79 in1008.8 mb - 0.00 in0.0 mm 0.00 in0.0 mm
02:10 AM 54.1°F12.3°C 50.3°F10.2°C 87% 1.0 mph SE1.6 kmh SE 2.0 mph3.2 kmh 29.78 in1008.5 mb - 0.00 in0.0 mm 0.00 in0.0 mm
02:00 AM 54.5°F12.5°C 51.0°F10.6°C 88% Calm Calm 1.0 mph1.6 kmh 29.77 in1008.1 mb - 0.00 in0.0 mm 0.00 in0.0 mm
01:50 AM 54.1°F12.3°C 50.6°F10.3°C 88% 2.0 mph SE3.2 kmh SE 3.0 mph4.8 kmh 29.78 in1008.5 mb - 0.00 in0.0 mm 0.00 in0.0 mm
01:40 AM 54.3°F12.4°C 50.8°F10.4°C 88% Calm Calm -- 29.78 in1008.5 mb - 0.00 in0.0 mm 0.00 in0.0 mm
01:30 AM 54.7°F12.6°C 41.9°F5.5°C 62% 0.7 mph SSW1.1 kmh SSW 1.0 mph1.6 kmh 29.77 in1008.1 mb - 0.00 in0.0 mm 0.00 in0.0 mm
01:20 AM 54.8°F12.7°C 50.6°F10.3°C 86% Calm Calm 1.0 mph1.6 kmh 29.79 in1008.8 mb - 0.00 in0.0 mm 0.00 in0.0 mm
01:10 AM 55.4°F13.0°C 51.0°F10.6°C 85% Calm Calm -- 29.77 in1008.1 mb - 0.00 in0.0 mm 0.00 in0.0 mm
01:00 AM 55.6°F13.1°C 51.2°F10.7°C 85% Calm Calm 2.0 mph3.2 kmh 29.77 in1008.1 mb - 0.00 in0.0 mm 0.00 in0.0 mm
12:30 AM 55.3°F12.9°C 42.1°F5.6°C 61% 5.0 mph SE8.0 kmh SE 9.0 mph14.5 kmh 29.76 in1007.8 mb - 0.00 in0.0 mm 0.00 in0.0 mm
12:00 AM 57.1°F13.9°C 51.7°F10.9°C 82% 1.0 mph E1.6 kmh E 2.0 mph3.2 kmh 29.75 in1007.5 mb - 0.00 in0.0 mm 0.00 in0.0 mm